Acushnet, Massachusetts
Current Conditions -  °F | °C
As of 11:53 PM on Wednesday 26 Nov 2014 (Local Time) from KEWB Reporting Station
Light Rain Light Rain  
Wind Chill: 26°   Ceiling: 800
Heat Index: 35°   Visibility: 8mi
Dew Point: 34°   Wind: 13mph
Humidity: 96%   Direction: 340°NNW
Pressure: 29.6"   Gusts: 25mph
Location:  41.68°N, 70.91°W
Report Text: KEWB 270453Z AUTO 34011G22KT 8SM -RA BKN008 OVC014 02/01 A2960 RMK AO2 PK WND 01026/0356 SLP023 P0002 T00170011 400940017
Loading
Personal Weather Stations






























Interactive Weather Map New forecast layout! Learn more

10-Day Weather Forecast

Advertisements
Track Severe Weather on mobile